Terminal Aerodrome Forecast
Issued by NWS

Home | Current Version | Previous Version | Text Only | Print | Product List | Glossary On
Versions: 1 2 3 4 5 6 7 8 9 10 11 12 13 14 15 16 17 18
821
FTUS44 KLZK 231134
TAFBPK
TAF
KBPK 231134Z 2312/2412 13008KT P6SM OVC050 WS020/22040KT
     FM231600 16010G18KT P6SM BKN050 BKN250
     FM240100 15009KT P6SM SCT050 BKN250
     FM241000 16008G15KT P6SM VCSH BKN050 OVC150=

USA.gov is the U.S. government's official web portal to all federal, state and local government web resources and services.